Time;durP1;ratioP1;P1;durP2;ratioP2;P2;SDS_P1;SDS_P2;PMS_P1;PMS_P2;Temp;Humidity;BMP_temperature;BMP_pressure;BME280_temperature;BME280_humidity;BME280_pressure;Samples;Min_cycle;Max_cycle;Signal;HPM_P1;HPM_P2
2022/07/22 00:01:58;;;;;;;7.38;5.45;;;;;;;20.00;70.66;100913.59;4970215;28;20031;-66
2022/07/22 00:04:24;;;;;;;5.83;5.20;;;;;;;19.99;70.51;100908.41;4969482;28;20092;-67
2022/07/22 00:06:49;;;;;;;6.18;5.35;;;;;;;19.99;70.75;100914.59;4970093;28;20309;-68
2022/07/22 00:09:14;;;;;;;7.07;5.85;;;;;;;20.02;70.03;100919.59;4970081;28;20138;-67
2022/07/22 00:11:40;;;;;;;7.03;5.65;;;;;;;20.04;69.72;100911.31;4970078;28;20404;-67
2022/07/22 00:14:05;;;;;;;7.03;5.57;;;;;;;20.02;69.81;100906.16;4968725;28;20352;-70
2022/07/22 00:16:31;;;;;;;7.00;5.30;;;;;;;20.00;69.98;100904.69;4970712;28;20050;-67
2022/07/22 00:18:56;;;;;;;7.28;5.60;;;;;;;19.97;69.83;100900.56;4970385;28;20499;-67
2022/07/22 00:21:21;;;;;;;5.85;4.70;;;;;;;19.99;69.44;100903.03;4966454;28;20043;-67
2022/07/22 00:23:46;;;;;;;6.25;5.28;;;;;;;19.93;69.50;100894.78;4970742;28;20064;-67
2022/07/22 00:26:12;;;;;;;7.05;5.57;;;;;;;19.90;69.73;100903.25;4970088;28;20174;-67
2022/07/22 00:28:37;;;;;;;7.78;5.40;;;;;;;19.90;69.69;100894.34;4966078;28;20027;-67
2022/07/22 00:31:03;;;;;;;8.90;6.18;;;;;;;19.87;69.90;100895.59;4968831;28;20050;-67
2022/07/22 00:33:28;;;;;;;6.60;5.55;;;;;;;19.83;69.82;100898.88;4972631;28;20050;-67
2022/07/22 00:35:53;;;;;;;7.23;5.50;;;;;;;19.75;70.19;100899.09;4971935;28;20066;-67
2022/07/22 00:38:19;;;;;;;7.05;5.47;;;;;;;19.71;70.28;100894.13;4970311;28;20282;-67
2022/07/22 00:40:44;;;;;;;5.22;4.72;;;;;;;19.69;70.21;100885.44;4971954;28;20415;-67
2022/07/22 00:43:10;;;;;;;6.50;5.30;;;;;;;19.68;70.20;100891.81;4967824;28;20189;-67
2022/07/22 00:45:35;;;;;;;7.18;5.00;;;;;;;19.65;69.90;100881.47;4970257;28;20051;-67
2022/07/22 00:48:01;;;;;;;5.20;4.60;;;;;;;19.59;70.59;100887.66;4970175;28;20031;-67
2022/07/22 00:50:26;;;;;;;6.20;5.07;;;;;;;19.54;70.46;100892.78;4968981;28;20180;-67
2022/07/22 00:52:52;;;;;;;5.50;4.90;;;;;;;19.50;70.46;100888.88;4969578;28;20043;-67
2022/07/22 00:55:18;;;;;;;6.32;5.38;;;;;;;19.46;70.42;100883.06;4969121;28;20035;-67
2022/07/22 00:57:43;;;;;;;5.90;5.03;;;;;;;19.41;70.18;100890.09;4969738;28;20043;-68
2022/07/22 01:00:14;;;;;;;6.22;4.95;;;;;;;19.39;70.12;100892.13;4968127;28;20035;-68
2022/07/22 01:02:39;;;;;;;5.68;4.88;;;;;;;19.37;70.36;100891.50;4968987;28;20399;-67
2022/07/22 01:05:05;;;;;;;5.75;4.65;;;;;;;19.36;69.98;100895.22;4968970;28;20030;-67
2022/07/22 01:07:31;;;;;;;5.28;4.32;;;;;;;19.33;70.47;100892.94;4968751;28;20039;-67
2022/07/22 01:09:56;;;;;;;5.60;4.47;;;;;;;19.30;70.02;100894.16;4968311;28;20045;-67
2022/07/22 01:12:22;;;;;;;5.82;4.50;;;;;;;19.26;70.13;100898.28;4966498;28;20174;-67
2022/07/22 01:14:47;;;;;;;5.22;4.10;;;;;;;19.28;70.25;100902.41;4969263;28;20122;-67
2022/07/22 01:17:12;;;;;;;5.80;4.88;;;;;;;19.28;70.59;100902.41;4968864;28;20047;-67
2022/07/22 01:19:38;;;;;;;6.20;4.45;;;;;;;19.27;70.53;100907.97;4968811;28;20054;-67
2022/07/22 01:22:05;;;;;;;4.60;4.05;;;;;;;19.21;70.15;100908.75;4968718;28;20498;-67
2022/07/22 01:24:30;;;;;;;4.93;4.13;;;;;;;19.11;70.87;100898.41;4966741;28;20043;-67
2022/07/22 01:26:55;;;;;;;4.68;4.03;;;;;;;19.06;70.36;100896.31;4968574;28;20034;-67
2022/07/22 01:29:20;;;;;;;4.88;4.03;;;;;;;19.03;70.81;100895.91;4968921;28;20379;-67
2022/07/22 01:31:46;;;;;;;3.60;3.30;;;;;;;19.00;70.82;100907.03;4967414;28;20054;-67
2022/07/22 01:34:12;;;;;;;4.57;4.07;;;;;;;18.96;71.34;100893.19;4966951;28;20504;-68
2022/07/22 01:36:37;;;;;;;4.35;3.75;;;;;;;18.90;71.09;100899.31;4969384;28;20170;-67
2022/07/22 01:39:03;;;;;;;4.77;3.90;;;;;;;18.83;71.46;100901.97;4967691;28;20039;-67
2022/07/22 01:41:28;;;;;;;4.75;3.88;;;;;;;18.77;71.05;100901.94;4964510;28;20663;-67
2022/07/22 01:43:53;;;;;;;4.82;3.92;;;;;;;18.70;71.30;100901.84;4947692;28;20047;-67
2022/07/22 01:46:19;;;;;;;5.90;4.00;;;;;;;18.67;71.91;100900.41;4949867;28;20046;-67
2022/07/22 01:48:45;;;;;;;5.05;3.65;;;;;;;18.62;71.82;100905.50;4949720;28;20524;-67
2022/07/22 01:51:10;;;;;;;5.32;3.88;;;;;;;18.59;71.84;100899.72;4948847;28;20047;-67
2022/07/22 01:53:35;;;;;;;4.50;3.67;;;;;;;18.57;72.11;100905.28;4945354;28;20547;-67
2022/07/22 01:56:01;;;;;;;5.35;4.82;;;;;;;18.57;72.46;100904.47;4945743;28;20113;-67
2022/07/22 01:58:26;;;;;;;5.97;4.90;;;;;;;18.61;72.83;100901.16;4948388;28;20043;-67
2022/07/22 02:00:52;;;;;;;5.15;4.53;;;;;;;18.60;72.65;100904.06;4948828;28;20554;-68
2022/07/22 02:03:17;;;;;;;6.28;5.32;;;;;;;18.59;74.24;100894.34;4949599;28;20617;-67
2022/07/22 02:05:43;;;;;;;6.03;5.05;;;;;;;18.57;73.52;100891.06;4947767;28;20035;-67
2022/07/22 02:08:10;;;;;;;7.25;5.45;;;;;;;18.53;73.60;100898.66;4947099;28;20031;-67
2022/07/22 02:10:35;;;;;;;5.35;4.30;;;;;;;18.49;73.68;100897.38;4948417;29;20051;-67
2022/07/22 02:13:01;;;;;;;4.78;4.00;;;;;;;18.44;73.92;100894.47;4947761;28;20219;-67
2022/07/22 02:15:27;;;;;;;7.70;6.88;;;;;;;18.49;74.64;100894.69;4949033;28;20054;-67
2022/07/22 02:17:53;;;;;;;10.05;7.25;;;;;;;18.53;75.08;100897.81;4947666;28;20031;-67
2022/07/22 02:20:19;;;;;;;7.53;6.60;;;;;;;18.54;76.39;100896.78;4948095;28;20074;-68
2022/07/22 02:22:44;;;;;;;9.65;7.22;;;;;;;18.56;76.78;100894.75;4949066;28;20063;-67
2022/07/22 02:25:11;;;;;;;8.27;7.00;;;;;;;18.57;77.05;100885.72;4947918;28;20103;-67
2022/07/22 02:27:37;;;;;;;8.20;7.05;;;;;;;18.61;76.96;100894.97;4949284;28;20027;-67
2022/07/22 02:30:04;;;;;;;7.72;6.60;;;;;;;18.63;76.79;100895.63;4948904;28;20031;-67
2022/07/22 02:32:30;;;;;;;8.68;7.38;;;;;;;18.63;77.15;100895.63;4947758;28;20039;-67
2022/07/22 02:34:55;;;;;;;7.63;6.25;;;;;;;18.62;76.44;100897.47;4947655;28;20055;-67
2022/07/22 02:37:20;;;;;;;8.15;7.35;;;;;;;18.59;77.76;100889.84;4948077;28;20063;-67
2022/07/22 02:39:46;;;;;;;8.60;6.57;;;;;;;18.59;77.33;100891.66;4948068;28;20454;-67
2022/07/22 02:42:11;;;;;;;7.43;6.50;;;;;;;18.57;77.50;100896.44;4946809;28;20035;-67
2022/07/22 02:44:36;;;;;;;8.27;5.95;;;;;;;18.52;77.06;100896.16;4943406;28;20039;-68
2022/07/22 02:47:02;;;;;;;8.13;6.45;;;;;;;18.44;77.43;100895.28;4948110;28;20115;-68
2022/07/22 02:49:27;;;;;;;7.50;6.30;;;;;;;18.38;77.23;100892.56;4947987;28;20439;-67
2022/07/22 02:51:52;;;;;;;7.55;5.97;;;;;;;18.34;76.79;100900.16;4949893;28;20483;-67
2022/07/22 02:54:17;;;;;;;6.73;5.57;;;;;;;18.30;77.72;100895.38;4947966;28;20041;-67
2022/07/22 02:56:43;;;;;;;7.90;6.32;;;;;;;18.23;77.88;100900.66;4948503;28;20314;-67
2022/07/22 02:59:08;;;;;;;10.02;7.05;;;;;;;18.17;77.90;100904.13;4946782;28;20027;-67
2022/07/22 03:01:33;;;;;;;8.40;6.40;;;;;;;18.12;77.98;100911.91;4951135;28;20074;-67
2022/07/22 03:03:59;;;;;;;5.88;5.00;;;;;;;18.07;77.66;100898.25;4969811;28;20126;-67
2022/07/22 03:06:24;;;;;;;8.00;6.10;;;;;;;18.02;78.17;100905.03;4973484;28;20447;-67
2022/07/22 03:08:49;;;;;;;8.05;6.22;;;;;;;17.96;78.28;100903.09;4970969;28;20035;-67
2022/07/22 03:11:15;;;;;;;7.00;6.05;;;;;;;17.93;78.40;100905.34;4972029;28;20042;-67
2022/07/22 03:13:40;;;;;;;7.30;5.68;;;;;;;17.90;78.00;100895.84;4967716;28;20496;-67
2022/07/22 03:16:05;;;;;;;6.72;5.55;;;;;;;17.88;78.44;100907.78;4969321;28;20110;-68
2022/07/22 03:18:31;;;;;;;5.38;4.88;;;;;;;17.86;77.69;100913.31;4971731;28;20205;-67
2022/07/22 03:20:56;;;;;;;4.80;4.28;;;;;;;17.85;77.91;100911.63;4969706;28;20451;-67
2022/07/22 03:23:22;;;;;;;6.72;5.95;;;;;;;17.82;78.78;100907.50;4970843;28;20063;-67
2022/07/22 03:25:47;;;;;;;6.25;5.30;;;;;;;17.78;78.51;100910.69;4971082;28;20443;-67
2022/07/22 03:28:13;;;;;;;5.43;4.57;;;;;;;17.74;78.05;100902.25;4967538;28;20043;-67
2022/07/22 03:30:38;;;;;;;7.05;5.75;;;;;;;17.69;79.32;100901.16;4969164;28;20086;-67
2022/07/22 03:33:03;;;;;;;7.03;5.95;;;;;;;17.68;79.78;100908.34;4970943;28;20161;-67
2022/07/22 03:35:29;;;;;;;7.65;6.35;;;;;;;17.66;79.44;100907.69;4971148;28;20038;-67
2022/07/22 03:37:54;;;;;;;7.53;6.25;;;;;;;17.66;79.76;100906.88;4970533;28;20122;-67
2022/07/22 03:40:19;;;;;;;6.68;5.55;;;;;;;17.66;79.03;100909.53;4969905;28;20042;-67
2022/07/22 03:42:44;;;;;;;6.80;6.10;;;;;;;17.62;78.98;100907.25;4967472;28;20034;-67
2022/07/22 03:45:10;;;;;;;7.53;6.75;;;;;;;17.64;80.16;100909.75;4967850;28;20122;-67
2022/07/22 03:47:36;;;;;;;8.48;7.63;;;;;;;17.67;80.86;100900.53;4969883;28;20130;-67
2022/07/22 03:50:02;;;;;;;9.75;7.88;;;;;;;17.70;80.97;100908.97;4970350;28;20038;-67
2022/07/22 03:52:28;;;;;;;9.27;7.60;;;;;;;17.73;80.99;100916.66;4969962;28;20395;-67
2022/07/22 03:54:54;;;;;;;7.00;5.85;;;;;;;17.75;80.31;100917.25;4969847;28;20039;-68
2022/07/22 03:57:20;;;;;;;7.85;6.13;;;;;;;17.75;79.79;100913.75;4969989;28;20046;-67
2022/07/22 03:59:45;;;;;;;7.35;5.80;;;;;;;17.70;79.74;100919.69;4970214;28;20026;-67
2022/07/22 04:02:10;;;;;;;5.88;5.22;;;;;;;17.84;79.65;100918.00;4968484;28;20511;-68
2022/07/22 04:04:36;;;;;;;6.13;5.00;;;;;;;17.74;79.72;100922.81;4970117;28;20069;-67
2022/07/22 04:07:01;;;;;;;7.88;5.82;;;;;;;17.68;80.34;100918.22;4969734;28;20122;-67
2022/07/22 04:09:26;;;;;;;8.38;6.03;;;;;;;17.66;80.69;100920.25;4970095;28;20569;-67
2022/07/22 04:11:52;;;;;;;6.78;5.72;;;;;;;17.66;80.05;100918.38;4968120;28;20042;-67
2022/07/22 04:14:18;;;;;;;6.32;5.07;;;;;;;17.66;80.17;100914.91;4969995;28;20117;-68
2022/07/22 04:16:43;;;;;;;6.07;4.85;;;;;;;17.60;80.49;100914.63;4969823;28;20787;-67
2022/07/22 04:19:09;;;;;;;7.70;6.60;;;;;;;17.60;80.44;100908.47;4969749;28;20043;-67
2022/07/22 04:21:35;;;;;;;7.47;5.85;;;;;;;17.62;80.29;100901.91;4969667;28;20039;-67
2022/07/22 04:24:00;;;;;;;8.05;6.57;;;;;;;17.64;80.58;100899.06;4969984;28;20395;-67
2022/07/22 04:26:25;;;;;;;6.32;5.30;;;;;;;17.70;80.22;100903.63;4969286;28;20042;-67
2022/07/22 04:28:51;;;;;;;6.10;5.38;;;;;;;17.73;79.92;100902.41;4970241;28;20097;-67
2022/07/22 04:31:16;;;;;;;6.88;5.18;;;;;;;17.75;80.14;100906.56;4968676;28;20035;-67
2022/07/22 04:33:41;;;;;;;7.60;6.53;;;;;;;17.74;79.73;100899.56;4969380;28;20114;-67
2022/07/22 04:36:07;;;;;;;7.57;6.30;;;;;;;17.77;79.67;100893.00;4969180;28;20034;-67
2022/07/22 04:38:32;;;;;;;7.53;6.20;;;;;;;17.80;79.80;100898.84;4970847;28;20641;-67
2022/07/22 04:40:58;;;;;;;7.97;6.70;;;;;;;17.88;79.78;100889.88;4962275;28;20122;-67
2022/07/22 04:43:23;;;;;;;7.47;5.72;;;;;;;17.97;79.33;100888.72;4970073;28;20041;-67
2022/07/22 04:45:49;;;;;;;7.07;6.13;;;;;;;18.02;79.26;100897.00;4971120;28;20037;-67
2022/07/22 04:48:14;;;;;;;10.65;8.18;;;;;;;18.07;79.23;100893.75;4970522;28;20031;-68
2022/07/22 04:50:40;;;;;;;7.97;6.88;;;;;;;18.10;78.72;100900.56;4970573;28;20605;-68
2022/07/22 04:53:05;;;;;;;9.35;7.43;;;;;;;18.09;79.82;100891.72;4969728;28;20451;-67
2022/07/22 04:55:30;;;;;;;8.77;7.22;;;;;;;18.15;79.55;100887.44;4969768;28;20413;-68
2022/07/22 04:57:56;;;;;;;10.48;7.60;;;;;;;18.19;79.71;100891.38;4969791;28;20057;-68
2022/07/22 05:00:22;;;;;;;10.98;7.78;;;;;;;18.26;79.30;100894.94;4970427;28;20062;-68
2022/07/22 05:02:47;;;;;;;9.35;7.75;;;;;;;18.34;78.34;100892.13;4960057;28;20034;-67
2022/07/22 05:05:12;;;;;;;9.43;8.20;;;;;;;18.39;78.11;100895.03;4970446;28;20048;-67
2022/07/22 05:07:38;;;;;;;10.07;8.05;;;;;;;18.40;77.78;100896.72;4977614;28;20049;-67
2022/07/22 05:10:04;;;;;;;9.85;7.57;;;;;;;18.40;78.01;100899.38;4985909;28;20042;-67
2022/07/22 05:12:29;;;;;;;10.45;8.00;;;;;;;18.44;78.03;100897.94;4983869;28;20037;-68
2022/07/22 05:14:54;;;;;;;7.97;6.67;;;;;;;18.50;77.89;100907.06;4970015;28;20039;-67
2022/07/22 05:17:20;;;;;;;8.27;6.45;;;;;;;18.55;77.93;100901.13;4970667;28;20294;-67
2022/07/22 05:19:45;;;;;;;8.98;7.03;;;;;;;18.63;78.00;100906.34;4970958;28;20121;-67
2022/07/22 05:22:10;;;;;;;8.32;6.68;;;;;;;18.68;77.39;100904.72;4970145;28;20515;-68
2022/07/22 05:24:36;;;;;;;9.20;7.53;;;;;;;18.75;77.15;100904.75;4971179;28;20424;-67
2022/07/22 05:27:01;;;;;;;8.00;6.18;;;;;;;18.85;77.15;100902.63;4969948;28;20577;-67
2022/07/22 05:29:27;;;;;;;7.72;6.07;;;;;;;18.93;76.91;100900.81;4970745;28;20034;-67
2022/07/22 05:31:52;;;;;;;5.45;4.85;;;;;;;19.05;76.47;100905.41;4969728;28;20404;-67
2022/07/22 05:34:17;;;;;;;8.52;6.05;;;;;;;19.13;75.92;100906.25;4964602;28;20063;-68
2022/07/22 05:36:43;;;;;;;6.33;5.07;;;;;;;19.24;75.64;100903.00;4969909;28;20497;-68
2022/07/22 05:39:08;;;;;;;8.68;5.45;;;;;;;19.35;75.73;100898.91;4969579;28;20377;-67
2022/07/22 05:41:33;;;;;;;6.05;5.30;;;;;;;19.39;74.53;100906.38;4967614;28;20085;-67
2022/07/22 05:43:59;;;;;;;7.55;5.38;;;;;;;19.44;74.11;100900.41;4963818;28;20507;-68
2022/07/22 05:46:24;;;;;;;8.18;5.82;;;;;;;19.51;73.19;100906.63;4970893;28;20031;-68
2022/07/22 05:48:49;;;;;;;5.78;4.60;;;;;;;19.78;72.99;100912.91;4971511;28;20041;-68
2022/07/22 05:51:15;;;;;;;6.82;5.38;;;;;;;20.06;72.20;100909.25;4966402;28;20126;-68
2022/07/22 05:53:41;;;;;;;6.22;4.78;;;;;;;20.41;71.14;100901.00;4965477;28;20043;-68
2022/07/22 05:56:08;;;;;;;8.93;5.30;;;;;;;20.67;69.56;100901.00;4966993;28;20035;-67
2022/07/22 05:58:34;;;;;;;5.88;4.95;;;;;;;20.94;68.78;100896.38;4971125;28;20082;-67
2022/07/22 06:00:59;;;;;;;6.47;4.80;;;;;;;21.10;67.20;100900.47;4970268;28;20118;-67
2022/07/22 06:03:25;;;;;;;4.97;3.73;;;;;;;21.57;66.86;100895.75;4970049;28;20904;-69
2022/07/22 06:05:50;;;;;;;4.03;3.03;;;;;;;21.89;67.13;100892.25;4970276;28;20045;-68
2022/07/22 06:08:15;;;;;;;4.70;3.47;;;;;;;22.24;65.94;100892.66;4970664;28;20507;-67
2022/07/22 06:10:41;;;;;;;5.32;3.70;;;;;;;22.58;64.97;100899.38;4971525;28;20031;-67
2022/07/22 06:13:06;;;;;;;5.13;3.50;;;;;;;22.89;63.68;100894.91;4970914;28;20062;-68
2022/07/22 06:15:32;;;;;;;4.45;3.45;;;;;;;23.12;61.68;100894.28;4971733;28;20054;-68
2022/07/22 06:17:57;;;;;;;4.50;3.50;;;;;;;23.37;60.74;100894.16;4970148;28;20528;-68
2022/07/22 06:20:23;;;;;;;4.63;3.50;;;;;;;23.46;59.70;100891.97;4971347;28;20475;-68
2022/07/22 06:22:48;;;;;;;4.28;3.17;;;;;;;23.74;59.79;100891.41;4971350;28;20121;-68
2022/07/22 06:25:13;;;;;;;3.90;3.00;;;;;;;23.93;58.77;100895.69;4970088;28;20031;-68
2022/07/22 06:27:39;;;;;;;3.58;2.80;;;;;;;24.15;58.81;100892.44;4971360;28;20266;-68
2022/07/22 06:30:05;;;;;;;5.05;2.45;;;;;;;24.47;58.24;100887.53;4971087;28;20073;-68
2022/07/22 06:32:30;;;;;;;3.58;2.70;;;;;;;24.80;56.85;100888.81;4970122;28;20419;-68
2022/07/22 06:34:55;;;;;;;3.83;2.97;;;;;;;24.91;56.00;100887.16;4970994;28;20503;-68
2022/07/22 06:37:20;;;;;;;4.47;3.13;;;;;;;25.12;55.69;100888.41;4975136;28;20271;-69
2022/07/22 06:39:47;;;;;;;5.45;3.17;;;;;;;25.30;54.37;100880.13;4966839;28;20135;-68
2022/07/22 06:42:13;;;;;;;4.07;3.00;;;;;;;25.49;54.08;100880.78;4973209;28;20037;-68
2022/07/22 06:44:38;;;;;;;3.78;2.50;;;;;;;25.75;54.42;100876.63;4956018;28;20400;-69
2022/07/22 06:47:04;;;;;;;4.57;3.10;;;;;;;25.90;51.54;100878.81;4972025;28;20459;-68
2022/07/22 06:49:29;;;;;;;4.45;2.80;;;;;;;25.85;51.57;100870.56;4974765;28;20049;-68
2022/07/22 06:51:54;;;;;;;4.50;3.15;;;;;;;25.88;49.98;100875.53;4974154;28;20039;-68
2022/07/22 06:54:20;;;;;;;3.20;2.53;;;;;;;25.90;51.13;100867.97;4964467;28;20031;-68
2022/07/22 06:56:45;;;;;;;3.45;2.60;;;;;;;26.04;50.96;100873.91;4973797;28;20284;-68
2022/07/22 06:59:10;;;;;;;4.97;2.50;;;;;;;26.25;51.10;100870.44;4974401;28;20035;-69
2022/07/22 07:01:36;;;;;;;3.65;2.33;;;;;;;26.39;50.50;100870.13;4973604;28;20290;-68
2022/07/22 07:04:02;;;;;;;2.53;1.75;;;;;;;27.06;50.11;100866.41;4973023;28;20462;-68
2022/07/22 07:06:27;;;;;;;2.85;2.20;;;;;;;27.02;49.16;100868.00;4973846;28;20038;-69
2022/07/22 07:08:53;;;;;;;4.88;2.70;;;;;;;26.94;48.09;100863.84;4974143;28;20077;-68
2022/07/22 07:11:18;;;;;;;3.75;2.28;;;;;;;26.93;48.79;100862.16;4973607;28;20050;-68
2022/07/22 07:13:43;;;;;;;2.78;2.28;;;;;;;27.18;48.44;100858.97;4974199;28;20030;-69
2022/07/22 07:16:10;;;;;;;4.38;2.75;;;;;;;27.41;46.87;100863.31;4973244;28;20178;-69
2022/07/22 07:18:35;;;;;;;3.03;2.17;;;;;;;27.41;47.59;100862.47;4974045;28;20027;-69
2022/07/22 07:21:01;;;;;;;2.90;2.08;;;;;;;27.73;47.65;100860.63;4973675;28;20035;-69
2022/07/22 07:23:26;;;;;;;3.63;2.58;;;;;;;27.71;45.35;100854.63;4974089;28;20121;-69
2022/07/22 07:25:52;;;;;;;3.50;2.25;;;;;;;27.67;46.41;100864.38;4972262;28;20042;-69
2022/07/22 07:28:17;;;;;;;2.90;2.50;;;;;;;27.84;46.73;100852.59;4973262;28;20463;-68
2022/07/22 07:30:43;;;;;;;5.57;3.53;;;;;;;27.88;44.45;100848.28;4973630;28;20125;-68
2022/07/22 07:33:08;;;;;;;2.92;2.25;;;;;;;27.75;45.30;100850.31;4973661;28;20102;-68
2022/07/22 07:35:34;;;;;;;3.42;2.50;;;;;;;27.92;45.66;100846.69;4973015;28;20062;-69
2022/07/22 07:37:59;;;;;;;2.53;2.10;;;;;;;28.17;45.01;100846.88;4973323;28;20471;-69
2022/07/22 07:40:25;;;;;;;3.47;2.50;;;;;;;28.54;45.04;100837.88;4974784;28;20372;-69
2022/07/22 07:42:51;;;;;;;2.83;2.30;;;;;;;28.63;44.35;100838.19;4967623;28;20073;-70
2022/07/22 07:45:16;;;;;;;3.10;2.40;;;;;;;28.77;43.65;100841.22;4954615;28;20395;-69
2022/07/22 07:47:42;;;;;;;3.97;2.42;;;;;;;28.83;43.49;100837.47;4970678;28;20058;-69
2022/07/22 07:50:08;;;;;;;3.13;2.13;;;;;;;29.18;43.18;100835.97;4973660;28;20118;-69
2022/07/22 07:52:47;;;;;;;2.58;1.92;;;;;;;29.43;42.95;100832.47;4972658;28;20037;-69
2022/07/22 07:55:13;;;;;;;3.35;2.83;;;;;;;29.55;40.25;100830.31;4954664;28;20066;-69
2022/07/22 07:57:38;;;;;;;3.35;2.20;;;;;;;29.59;41.16;100822.41;4968155;28;20043;-69
2022/07/22 08:00:07;;;;;;;2.83;1.73;;;;;;;29.98;41.16;100824.59;4972819;28;20515;-69
2022/07/22 08:02:32;;;;;;;2.88;2.17;;;;;;;30.31;40.97;100822.41;4972444;28;20041;-69
2022/07/22 08:04:58;;;;;;;3.55;2.70;;;;;;;30.18;39.89;100823.78;4972944;28;20027;-69
2022/07/22 08:07:23;;;;;;;4.18;2.83;;;;;;;30.24;39.88;100823.47;4955573;28;20046;-69
2022/07/22 08:09:48;;;;;;;3.60;2.28;;;;;;;30.34;39.87;100822.66;4973269;28;20041;-69
2022/07/22 08:12:14;;;;;;;4.03;2.67;;;;;;;30.44;39.35;100808.19;4972429;28;20045;-69
2022/07/22 08:14:39;;;;;;;4.18;2.78;;;;;;;30.57;39.00;100814.97;4966122;28;20035;-68
2022/07/22 08:17:04;;;;;;;3.23;2.23;;;;;;;30.84;39.01;100815.44;4972604;28;20027;-70
2022/07/22 08:19:30;;;;;;;3.65;2.28;;;;;;;30.90;38.60;100810.75;4972553;28;20378;-69
2022/07/22 08:21:55;;;;;;;5.28;2.47;;;;;;;31.06;38.71;100801.38;4970857;28;20058;-70
2022/07/22 08:24:20;;;;;;;2.50;2.08;;;;;;;31.34;38.52;100818.13;4972166;28;20039;-70
2022/07/22 08:26:46;;;;;;;3.63;2.23;;;;;;;31.63;37.79;100814.66;4971159;28;20514;-69
2022/07/22 08:29:11;;;;;;;3.10;2.42;;;;;;;31.56;37.35;100814.16;4972465;28;20270;-69
2022/07/22 08:31:37;;;;;;;3.75;2.58;;;;;;;31.96;37.05;100807.56;4971943;28;20038;-70
2022/07/22 08:34:04;;;;;;;3.30;2.17;;;;;;;32.24;36.42;100807.84;4971930;28;20050;-69
2022/07/22 08:36:29;;;;;;;3.63;2.50;;;;;;;32.15;36.19;100804.91;4972054;28;20038;-69
2022/07/22 08:38:54;;;;;;;3.00;2.00;;;;;;;32.55;36.07;100797.38;4971553;28;20035;-70
2022/07/22 08:41:21;;;;;;;2.35;2.10;;;;;;;32.92;35.26;100796.63;4953005;28;20039;-69
2022/07/22 08:43:49;;;;;;;4.65;2.40;;;;;;;32.90;34.72;100789.81;4954078;28;20046;-68
2022/07/22 08:46:14;;;;;;;3.47;2.45;;;;;;;32.82;34.53;100794.00;4963136;28;20043;-69
2022/07/22 08:48:40;;;;;;;4.23;2.83;;;;;;;32.66;34.83;100787.13;4972463;28;20050;-69
2022/07/22 08:51:06;;;;;;;3.45;2.38;;;;;;;32.69;35.02;100798.28;4971474;28;20378;-69
2022/07/22 08:53:31;;;;;;;3.38;2.22;;;;;;;33.17;34.71;100798.19;4965955;28;20035;-69
2022/07/22 08:55:58;;;;;;;3.65;2.50;;;;;;;33.34;34.21;100792.16;4967665;28;20042;-68
2022/07/22 08:58:24;;;;;;;2.88;2.53;;;;;;;33.69;33.19;100792.72;4971427;28;20066;-69
2022/07/22 09:01:03;;;;;;;;;;;;;;;34.24;32.94;100794.78;4971923;28;20062;-69
2022/07/22 09:03:28;;;;;;;4.30;2.90;;;;;;;34.52;31.67;100783.78;4972292;28;20285;-70
2022/07/22 09:05:54;;;;;;;3.70;2.65;;;;;;;34.84;32.02;100796.56;4971633;28;20125;-69
2022/07/22 09:08:21;;;;;;;5.32;2.63;;;;;;;35.33;31.51;100796.84;4970900;28;20039;-70
2022/07/22 09:10:47;;;;;;;3.42;2.53;;;;;;;35.60;31.14;100796.75;4971371;28;20042;-69
2022/07/22 09:13:15;;;;;;;3.85;2.97;;;;;;;35.75;30.54;100790.03;4971330;28;20057;-70
2022/07/22 09:15:51;;;;;;;;;;;;;;;36.06;30.42;100789.22;4971510;28;20050;-69
2022/07/22 09:18:16;;;;;;;3.55;2.58;;;;;;;35.90;29.93;100786.88;4970877;28;19925;-69
2022/07/22 09:20:43;;;;;;;3.17;2.55;;;;;;;35.92;29.76;100790.13;4971872;28;20499;-70
2022/07/22 09:23:20;;;;;;;4.65;2.80;;;;;;;35.91;29.68;100787.69;4971248;28;20127;-69
2022/07/22 09:25:46;;;;;;;3.15;2.50;;;;;;;36.12;29.65;100780.53;4971386;28;20081;-69
2022/07/22 09:28:17;;;;;;;2.50;2.30;;;;;;;36.97;29.28;100785.75;4971178;28;20119;-70
2022/07/22 09:30:51;;;;;;;3.47;2.60;;;;;;;37.56;27.85;100785.25;4971689;28;20038;-69
2022/07/22 09:33:19;;;;;;;2.63;2.20;;;;;;;37.63;28.02;100773.72;4971669;28;20039;-69
2022/07/22 09:35:45;;;;;;;3.17;2.50;;;;;;;37.35;27.82;100764.97;4969257;28;20503;-70
2022/07/22 09:38:12;;;;;;;3.30;2.45;;;;;;;37.94;27.67;100772.66;4962280;28;20311;-69
2022/07/22 09:40:43;;;;;;;3.80;2.53;;;;;;;38.24;26.89;100771.56;4956992;28;20042;-69
2022/07/22 09:43:13;;;;;;;3.40;2.60;;;;;;;38.00;26.52;100768.59;4957823;28;20030;-69
2022/07/22 09:46:05;;;;;;;3.80;2.50;;;;;;;38.12;26.63;100767.91;4970921;28;20031;-69
2022/07/22 09:48:30;;;;;;;3.67;2.40;;;;;;;38.72;26.58;100766.75;4968033;28;20062;-68
2022/07/22 09:50:56;;;;;;;3.00;2.38;;;;;;;39.14;26.01;100768.69;4969227;28;20058;-67
2022/07/22 09:53:26;;;;;;;3.55;2.40;;;;;;;39.97;25.74;100767.66;4967013;28;20437;-68
2022/07/22 09:55:52;;;;;;;3.80;2.67;;;;;;;40.34;24.32;100757.41;4970043;28;20123;-68
2022/07/22 09:58:17;;;;;;;3.90;2.72;;;;;;;40.17;24.19;100763.19;4969967;28;20124;-67
2022/07/22 10:00:43;;;;;;;3.38;2.20;;;;;;;40.29;24.10;100754.88;4969916;28;20039;-67
2022/07/22 10:03:17;;;;;;;4.53;2.75;;;;;;;40.62;23.20;100751.13;4972207;28;20046;-68
2022/07/22 10:05:43;;;;;;;3.55;2.42;;;;;;;40.21;23.80;100753.00;4970007;28;20023;-68
2022/07/22 10:08:09;;;;;;;4.20;2.72;;;;;;;40.11;24.10;100756.25;4969244;28;20093;-68
2022/07/22 10:10:36;;;;;;;3.30;2.50;;;;;;;40.01;24.20;100749.22;4969662;28;20031;-67
2022/07/22 10:13:03;;;;;;;4.18;2.90;;;;;;;39.74;24.21;100742.38;4970104;28;20423;-67
2022/07/22 10:15:31;;;;;;;3.33;2.60;;;;;;;40.05;23.95;100744.59;4968144;28;20559;-68
2022/07/22 10:18:00;;;;;;;4.00;3.20;;;;;;;40.22;23.32;100734.44;4969876;28;20093;-69
2022/07/22 10:20:28;;;;;;;3.67;2.60;;;;;;;41.05;23.11;100735.75;4969477;28;20046;-67
2022/07/22 10:22:59;;;;;;;3.10;2.50;;;;;;;41.69;22.73;100733.94;4969881;28;20085;-67
2022/07/22 10:25:27;;;;;;;3.20;2.10;;;;;;;41.91;21.98;100732.47;4969209;28;20118;-69
2022/07/22 10:28:03;;;;;;;3.38;2.40;;;;;;;41.90;22.04;100728.06;4958934;28;20053;-68
2022/07/22 10:30:30;;;;;;;3.28;2.65;;;;;;;42.15;22.05;100727.91;4969477;28;20070;-68
2022/07/22 10:33:06;;;;;;;4.03;2.83;;;;;;;41.95;21.28;100721.44;4968281;28;20138;-69
2022/07/22 10:35:32;;;;;;;3.53;2.80;;;;;;;41.80;21.58;100720.28;4969596;28;20066;-68
2022/07/22 10:38:01;;;;;;;3.60;2.80;;;;;;;41.46;22.04;100711.50;4970022;28;20373;-68
2022/07/22 10:40:32;;;;;;;3.83;2.80;;;;;;;42.17;21.58;100718.03;4960671;28;20491;-71
2022/07/22 10:42:57;;;;;;;2.72;2.45;;;;;;;42.26;21.49;100717.81;4967532;28;20100;-68
2022/07/22 10:45:33;;;;;;;4.82;2.97;;;;;;;42.74;20.97;100703.75;4970248;28;20503;-69
2022/07/22 10:48:00;;;;;;;4.60;2.78;;;;;;;43.36;20.66;100703.75;4970312;28;20101;-68
2022/07/22 10:50:38;;;;;;;3.38;2.97;;;;;;;43.36;20.26;100700.97;4969598;28;20154;-68
2022/07/22 10:53:08;;;;;;;4.22;2.83;;;;;;;43.37;20.27;100697.03;4968512;28;20027;-68
2022/07/22 10:55:34;;;;;;;2.67;2.25;;;;;;;43.84;20.34;100691.06;4950567;28;20059;-68
2022/07/22 10:58:00;;;;;;;2.97;2.67;;;;;;;43.83;20.34;100692.22;4962054;28;20109;-68
2022/07/22 11:00:26;;;;;;;4.30;2.80;;;;;;;43.34;20.04;100684.66;4969646;28;20094;-68
2022/07/22 11:02:52;;;;;;;3.00;2.67;;;;;;;43.78;19.67;100683.41;4969562;28;20664;-68
2022/07/22 11:05:25;;;;;;;3.80;2.78;;;;;;;43.56;19.84;100676.66;4969040;28;20218;-68
2022/07/22 11:07:51;;;;;;;4.00;3.45;;;;;;;43.58;19.46;100672.31;4969569;28;20121;-68
2022/07/22 11:10:19;;;;;;;3.50;2.95;;;;;;;43.12;19.98;100669.53;4968894;28;20069;-68
2022/07/22 11:12:48;;;;;;;5.20;2.95;;;;;;;43.10;19.46;100662.72;4969162;28;20031;-68
2022/07/22 11:15:14;;;;;;;3.45;3.10;;;;;;;42.52;20.39;100660.81;4956031;28;20082;-68
2022/07/22 11:17:40;;;;;;;4.65;3.13;;;;;;;42.44;20.34;100651.53;4957140;28;20043;-68
2022/07/22 11:20:10;;;;;;;2.80;2.55;;;;;;;43.36;19.95;100648.91;4969923;28;20045;-68